sensor_id;sensor_type;location;lat;lon;timestamp;pressure;altitude;pressure_sealevel;temperature;humidity
64066;BME280;50318;54.760;9.408;2022-07-23T00:00:11;101314.81;;;20.28;55.33
64066;BME280;50318;54.760;9.408;2022-07-23T00:02:37;101324.19;;;20.30;55.15
64066;BME280;50318;54.760;9.408;2022-07-23T00:05:03;101312.81;;;20.28;55.32
64066;BME280;50318;54.760;9.408;2022-07-23T00:07:28;101305.19;;;20.29;54.84
64066;BME280;50318;54.760;9.408;2022-07-23T00:09:54;101302.16;;;20.32;54.74
64066;BME280;50318;54.760;9.408;2022-07-23T00:12:20;101306.47;;;20.33;54.86
64066;BME280;50318;54.760;9.408;2022-07-23T00:14:46;101309.25;;;20.28;54.86
64066;BME280;50318;54.760;9.408;2022-07-23T00:17:11;101310.53;;;20.27;55.21
64066;BME280;50318;54.760;9.408;2022-07-23T00:19:37;101303.94;;;20.30;54.56
64066;BME280;50318;54.760;9.408;2022-07-23T00:22:03;101317.63;;;20.28;55.08
64066;BME280;50318;54.760;9.408;2022-07-23T00:24:28;101311.03;;;20.25;54.61
64066;BME280;50318;54.760;9.408;2022-07-23T00:26:54;101317.63;;;20.28;54.65
64066;BME280;50318;54.760;9.408;2022-07-23T00:29:20;101311.53;;;20.23;54.33
64066;BME280;50318;54.760;9.408;2022-07-23T00:31:45;101318.38;;;20.28;54.84
64066;BME280;50318;54.760;9.408;2022-07-23T00:34:11;101315.34;;;20.26;54.70
64066;BME280;50318;54.760;9.408;2022-07-23T00:36:36;101313.06;;;20.24;54.25
64066;BME280;50318;54.760;9.408;2022-07-23T00:39:02;101309.00;;;20.26;53.81
64066;BME280;50318;54.760;9.408;2022-07-23T00:41:28;101313.81;;;20.19;53.56
64066;BME280;50318;54.760;9.408;2022-07-23T00:43:53;101313.81;;;20.25;54.82
64066;BME280;50318;54.760;9.408;2022-07-23T00:46:21;101311.28;;;20.27;54.34
64066;BME280;50318;54.760;9.408;2022-07-23T00:48:47;101310.53;;;20.27;54.08
64066;BME280;50318;54.760;9.408;2022-07-23T00:51:15;101290.25;;;20.20;54.04
64066;BME280;50318;54.760;9.408;2022-07-23T00:53:42;101294.81;;;20.23;53.77
64066;BME280;50318;54.760;9.408;2022-07-23T00:56:08;101297.59;;;20.18;53.75
64066;BME280;50318;54.760;9.408;2022-07-23T00:58:35;101288.97;;;20.16;54.01
64066;BME280;50318;54.760;9.408;2022-07-23T01:01:00;101290.75;;;20.13;53.98
64066;BME280;50318;54.760;9.408;2022-07-23T01:03:26;101297.59;;;20.18;53.50
64066;BME280;50318;54.760;9.408;2022-07-23T01:06:00;101294.56;;;20.16;53.90
64066;BME280;50318;54.760;9.408;2022-07-23T01:08:27;101293.53;;;20.19;53.56
64066;BME280;50318;54.760;9.408;2022-07-23T01:10:53;101290.25;;;20.15;53.70
64066;BME280;50318;54.760;9.408;2022-07-23T01:13:22;101285.44;;;20.15;53.73
64066;BME280;50318;54.760;9.408;2022-07-23T01:15:47;101282.13;;;20.11;53.77
64066;BME280;50318;54.760;9.408;2022-07-23T01:18:13;101286.44;;;20.12;54.30
64066;BME280;50318;54.760;9.408;2022-07-23T01:20:39;101291.72;;;20.10;54.02
64066;BME280;50318;54.760;9.408;2022-07-23T01:23:06;101292.28;;;20.14;54.17
64066;BME280;50318;54.760;9.408;2022-07-23T01:25:33;101291.78;;;20.16;53.57
64066;BME280;50318;54.760;9.408;2022-07-23T01:28:01;101281.34;;;20.11;53.50
64066;BME280;50318;54.760;9.408;2022-07-23T01:30:27;101284.41;;;20.13;53.88
64066;BME280;50318;54.760;9.408;2022-07-23T01:32:54;101289.25;;;20.18;53.87
64066;BME280;50318;54.760;9.408;2022-07-23T01:35:20;101266.66;;;20.10;54.18
64066;BME280;50318;54.760;9.408;2022-07-23T01:37:46;101283.41;;;20.21;53.65
64066;BME280;50318;54.760;9.408;2022-07-23T01:40:12;101284.44;;;20.24;53.93
64066;BME280;50318;54.760;9.408;2022-07-23T01:42:38;101284.94;;;20.22;53.69
64066;BME280;50318;54.760;9.408;2022-07-23T01:45:05;101267.97;;;20.20;53.92
64066;BME280;50318;54.760;9.408;2022-07-23T01:47:32;101268.22;;;20.22;54.24
64066;BME280;50318;54.760;9.408;2022-07-23T01:49:57;101273.53;;;20.20;54.09
64066;BME280;50318;54.760;9.408;2022-07-23T01:52:43;101276.31;;;20.20;53.93
64066;BME280;50318;54.760;9.408;2022-07-23T01:55:09;101266.19;;;20.17;54.21
64066;BME280;50318;54.760;9.408;2022-07-23T01:57:37;101260.38;;;20.15;53.99
64066;BME280;50318;54.760;9.408;2022-07-23T02:00:05;101253.75;;;20.07;54.04
64066;BME280;50318;54.760;9.408;2022-07-23T02:02:39;101267.22;;;20.14;54.39
64066;BME280;50318;54.760;9.408;2022-07-23T02:05:05;101262.13;;;20.13;54.20
64066;BME280;50318;54.760;9.408;2022-07-23T02:07:39;101270.00;;;20.14;54.28
64066;BME280;50318;54.760;9.408;2022-07-23T02:10:05;101264.41;;;20.14;54.03
64066;BME280;50318;54.760;9.408;2022-07-23T02:12:31;101258.09;;;20.14;53.91
64066;BME280;50318;54.760;9.408;2022-07-23T02:14:56;101266.69;;;20.16;54.16
64066;BME280;50318;54.760;9.408;2022-07-23T02:17:24;101261.38;;;20.12;54.27
64066;BME280;50318;54.760;9.408;2022-07-23T02:19:49;101275.06;;;20.16;53.98
64066;BME280;50318;54.760;9.408;2022-07-23T02:22:15;101259.81;;;20.06;54.22
64066;BME280;50318;54.760;9.408;2022-07-23T02:25:02;101269.44;;;20.10;54.34
64066;BME280;50318;54.760;9.408;2022-07-23T02:27:28;101273.28;;;20.13;54.26
64066;BME280;50318;54.760;9.408;2022-07-23T02:29:54;101276.56;;;20.11;54.58
64066;BME280;50318;54.760;9.408;2022-07-23T02:32:20;101275.03;;;20.10;54.57
64066;BME280;50318;54.760;9.408;2022-07-23T02:34:47;101264.63;;;20.11;54.57
64066;BME280;50318;54.760;9.408;2022-07-23T02:37:13;101266.94;;;20.12;54.53
64066;BME280;50318;54.760;9.408;2022-07-23T02:39:39;101266.41;;;20.08;54.36
64066;BME280;50318;54.760;9.408;2022-07-23T02:42:05;101271.25;;;20.13;54.84
64066;BME280;50318;54.760;9.408;2022-07-23T02:44:32;101263.88;;;20.10;54.68
64066;BME280;50318;54.760;9.408;2022-07-23T02:46:58;101260.13;;;20.13;54.42
64066;BME280;50318;54.760;9.408;2022-07-23T02:49:24;101265.69;;;20.13;54.67
64066;BME280;50318;54.760;9.408;2022-07-23T02:51:50;101254.28;;;20.11;54.58
64066;BME280;50318;54.760;9.408;2022-07-23T02:54:17;101261.09;;;20.10;54.55
64066;BME280;50318;54.760;9.408;2022-07-23T02:56:42;101251.22;;;20.09;54.75
64066;BME280;50318;54.760;9.408;2022-07-23T02:59:08;101262.38;;;20.09;54.36
64066;BME280;50318;54.760;9.408;2022-07-23T03:01:34;101248.69;;;20.06;54.29
64066;BME280;50318;54.760;9.408;2022-07-23T03:04:00;101246.16;;;20.02;54.88
64066;BME280;50318;54.760;9.408;2022-07-23T03:06:25;101247.16;;;20.05;54.88
64066;BME280;50318;54.760;9.408;2022-07-23T03:08:51;101259.31;;;20.07;54.61
64066;BME280;50318;54.760;9.408;2022-07-23T03:11:17;101255.50;;;19.99;54.61
64066;BME280;50318;54.760;9.408;2022-07-23T03:13:43;101253.25;;;20.03;54.72
64066;BME280;50318;54.760;9.408;2022-07-23T03:16:09;101246.16;;;20.02;54.57
64066;BME280;50318;54.760;9.408;2022-07-23T03:18:36;101247.94;;;20.05;54.78
64066;BME280;50318;54.760;9.408;2022-07-23T03:21:04;101242.34;;;20.05;54.92
64066;BME280;50318;54.760;9.408;2022-07-23T03:23:30;101246.66;;;20.06;55.08
64066;BME280;50318;54.760;9.408;2022-07-23T03:25:56;101253.00;;;20.07;54.98
64066;BME280;50318;54.760;9.408;2022-07-23T03:28:22;101238.06;;;20.04;55.00
64066;BME280;50318;54.760;9.408;2022-07-23T03:31:08;101238.56;;;20.08;54.73
64066;BME280;50318;54.760;9.408;2022-07-23T03:33:34;101243.38;;;20.08;54.96
64066;BME280;50318;54.760;9.408;2022-07-23T03:35:59;101243.38;;;20.08;54.88
64066;BME280;50318;54.760;9.408;2022-07-23T03:38:28;101248.94;;;20.08;55.04
64066;BME280;50318;54.760;9.408;2022-07-23T03:40:54;101242.09;;;20.03;54.73
64066;BME280;50318;54.760;9.408;2022-07-23T03:43:20;101228.19;;;20.03;54.71
64066;BME280;50318;54.760;9.408;2022-07-23T03:45:45;101232.22;;;20.08;54.99
64066;BME280;50318;54.760;9.408;2022-07-23T03:48:11;101248.44;;;20.09;54.81
64066;BME280;50318;54.760;9.408;2022-07-23T03:50:37;101242.09;;;20.09;54.99
64066;BME280;50318;54.760;9.408;2022-07-23T03:53:03;101238.31;;;20.06;54.63
64066;BME280;50318;54.760;9.408;2022-07-23T03:55:31;101236.78;;;20.05;54.93
64066;BME280;50318;54.760;9.408;2022-07-23T03:58:06;101235.78;;;20.08;55.40
64066;BME280;50318;54.760;9.408;2022-07-23T04:00:32;101232.47;;;20.04;54.73
64066;BME280;50318;54.760;9.408;2022-07-23T04:02:57;101234.75;;;20.06;55.28
64066;BME280;50318;54.760;9.408;2022-07-23T04:05:23;101239.31;;;20.09;54.77
64066;BME280;50318;54.760;9.408;2022-07-23T04:07:53;101244.16;;;20.14;54.88
64066;BME280;50318;54.760;9.408;2022-07-23T04:10:19;101245.41;;;20.07;54.68
64066;BME280;50318;54.760;9.408;2022-07-23T04:12:45;101251.75;;;20.13;54.10
64066;BME280;50318;54.760;9.408;2022-07-23T04:15:11;101251.75;;;20.13;54.74
64066;BME280;50318;54.760;9.408;2022-07-23T04:17:37;101248.47;;;20.15;55.21
64066;BME280;50318;54.760;9.408;2022-07-23T04:20:03;101247.47;;;20.18;55.46
64066;BME280;50318;54.760;9.408;2022-07-23T04:22:34;101246.69;;;20.17;55.14
64066;BME280;50318;54.760;9.408;2022-07-23T04:24:59;101243.91;;;20.12;54.96
64066;BME280;50318;54.760;9.408;2022-07-23T04:27:25;101236.78;;;20.11;55.15
64066;BME280;50318;54.760;9.408;2022-07-23T04:29:51;101241.59;;;20.10;55.37
64066;BME280;50318;54.760;9.408;2022-07-23T04:32:19;101248.19;;;20.07;55.06
64066;BME280;50318;54.760;9.408;2022-07-23T04:34:45;101245.44;;;20.13;54.83
64066;BME280;50318;54.760;9.408;2022-07-23T04:37:10;101229.19;;;20.06;54.88
64066;BME280;50318;54.760;9.408;2022-07-23T04:39:36;101237.59;;;20.11;55.13
64066;BME280;50318;54.760;9.408;2022-07-23T04:42:02;101242.38;;;20.11;55.31
64066;BME280;50318;54.760;9.408;2022-07-23T04:44:29;101237.84;;;20.13;55.17
64066;BME280;50318;54.760;9.408;2022-07-23T04:46:55;101241.88;;;20.18;54.99
64066;BME280;50318;54.760;9.408;2022-07-23T04:49:23;101234.53;;;20.20;55.43
64066;BME280;50318;54.760;9.408;2022-07-23T04:51:48;101234.28;;;20.24;55.20
64066;BME280;50318;54.760;9.408;2022-07-23T04:54:24;101229.75;;;20.27;55.06
64066;BME280;50318;54.760;9.408;2022-07-23T04:56:50;101228.72;;;20.30;55.55
64066;BME280;50318;54.760;9.408;2022-07-23T04:59:16;101231.00;;;20.31;55.50
64066;BME280;50318;54.760;9.408;2022-07-23T05:01:42;101231.78;;;20.37;55.39
64066;BME280;50318;54.760;9.408;2022-07-23T05:04:09;101228.78;;;20.41;54.50
64066;BME280;50318;54.760;9.408;2022-07-23T05:06:36;101229.03;;;20.43;55.02
64066;BME280;50318;54.760;9.408;2022-07-23T05:09:02;101238.13;;;20.49;54.62
64066;BME280;50318;54.760;9.408;2022-07-23T05:11:29;101232.56;;;20.49;54.74
64066;BME280;50318;54.760;9.408;2022-07-23T05:13:55;101240.66;;;20.58;55.16
64066;BME280;50318;54.760;9.408;2022-07-23T05:16:21;101245.75;;;20.60;54.96
64066;BME280;50318;54.760;9.408;2022-07-23T05:18:47;101238.41;;;20.62;55.35
64066;BME280;50318;54.760;9.408;2022-07-23T05:21:13;101240.19;;;20.60;54.33
64066;BME280;50318;54.760;9.408;2022-07-23T05:23:39;101243.72;;;20.60;54.54
64066;BME280;50318;54.760;9.408;2022-07-23T05:26:05;101240.41;;;20.56;54.94
64066;BME280;50318;54.760;9.408;2022-07-23T05:28:34;101234.34;;;20.58;55.26
64066;BME280;50318;54.760;9.408;2022-07-23T05:30:59;101242.47;;;20.67;54.61
64066;BME280;50318;54.760;9.408;2022-07-23T05:33:25;101245.00;;;20.70;54.89
64066;BME280;50318;54.760;9.408;2022-07-23T05:35:51;101244.22;;;20.75;54.91
64066;BME280;50318;54.760;9.408;2022-07-23T05:38:26;101249.31;;;20.82;54.65
64066;BME280;50318;54.760;9.408;2022-07-23T05:40:54;101253.34;;;20.87;54.56
64066;BME280;50318;54.760;9.408;2022-07-23T05:43:20;101247.25;;;20.94;54.43
64066;BME280;50318;54.760;9.408;2022-07-23T05:45:45;101258.63;;;21.02;54.45
64066;BME280;50318;54.760;9.408;2022-07-23T05:48:11;101259.91;;;21.12;54.23
64066;BME280;50318;54.760;9.408;2022-07-23T05:50:47;101262.16;;;21.19;53.76
64066;BME280;50318;54.760;9.408;2022-07-23T05:53:22;101251.25;;;21.21;53.81
64066;BME280;50318;54.760;9.408;2022-07-23T05:55:57;101248.47;;;21.27;54.23
64066;BME280;50318;54.760;9.408;2022-07-23T05:58:23;101254.28;;;21.29;53.92
64066;BME280;50318;54.760;9.408;2022-07-23T06:00:49;101252.75;;;21.39;52.68
64066;BME280;50318;54.760;9.408;2022-07-23T06:03:15;101257.09;;;21.34;53.09
64066;BME280;50318;54.760;9.408;2022-07-23T06:05:41;101250.00;;;21.28;53.10
64066;BME280;50318;54.760;9.408;2022-07-23T06:08:07;101258.34;;;21.22;53.45
64066;BME280;50318;54.760;9.408;2022-07-23T06:10:34;101259.13;;;21.17;53.93
64066;BME280;50318;54.760;9.408;2022-07-23T06:13:00;101256.09;;;21.09;54.28
64066;BME280;50318;54.760;9.408;2022-07-23T06:15:29;101251.28;;;20.99;54.22
64066;BME280;50318;54.760;9.408;2022-07-23T06:17:55;101241.94;;;20.91;54.66
64066;BME280;50318;54.760;9.408;2022-07-23T06:20:22;101244.72;;;20.91;54.43
64066;BME280;50318;54.760;9.408;2022-07-23T06:22:47;101244.22;;;20.81;54.55
64066;BME280;50318;54.760;9.408;2022-07-23T06:25:13;101252.09;;;20.82;54.62
64066;BME280;50318;54.760;9.408;2022-07-23T06:27:39;101249.03;;;20.80;55.12
64066;BME280;50318;54.760;9.408;2022-07-23T06:30:05;101268.31;;;20.84;55.43
64066;BME280;50318;54.760;9.408;2022-07-23T06:32:31;101269.31;;;20.75;55.02
64066;BME280;50318;54.760;9.408;2022-07-23T06:34:58;101269.81;;;20.68;55.60
64066;BME280;50318;54.760;9.408;2022-07-23T06:37:24;101268.31;;;20.62;55.10
64066;BME280;50318;54.760;9.408;2022-07-23T06:39:49;101276.66;;;20.56;55.61
64066;BME280;50318;54.760;9.408;2022-07-23T06:42:15;101279.69;;;20.47;56.30
64066;BME280;50318;54.760;9.408;2022-07-23T06:44:44;101271.03;;;20.34;56.24
64066;BME280;50318;54.760;9.408;2022-07-23T06:47:10;101275.06;;;20.27;57.24
64066;BME280;50318;54.760;9.408;2022-07-23T06:49:36;101280.13;;;20.29;57.57
64066;BME280;50318;54.760;9.408;2022-07-23T06:52:01;101284.69;;;20.32;56.61
64066;BME280;50318;54.760;9.408;2022-07-23T06:54:27;101287.22;;;20.30;56.66
64066;BME280;50318;54.760;9.408;2022-07-23T06:56:53;101276.84;;;20.24;56.67
64066;BME280;50318;54.760;9.408;2022-07-23T06:59:18;101286.97;;;20.33;56.55
64066;BME280;50318;54.760;9.408;2022-07-23T07:01:44;101284.47;;;20.35;56.79
64066;BME280;50318;54.760;9.408;2022-07-23T07:04:10;101282.69;;;20.38;56.69
64066;BME280;50318;54.760;9.408;2022-07-23T07:06:35;101275.59;;;20.37;56.37
64066;BME280;50318;54.760;9.408;2022-07-23T07:09:01;101279.94;;;20.43;55.95
64066;BME280;50318;54.760;9.408;2022-07-23T07:11:26;101279.69;;;20.47;56.15
64066;BME280;50318;54.760;9.408;2022-07-23T07:13:53;101281.47;;;20.50;55.98
64066;BME280;50318;54.760;9.408;2022-07-23T07:16:21;101282.72;;;20.54;55.94
64066;BME280;50318;54.760;9.408;2022-07-23T07:18:48;101279.44;;;20.56;55.58
64066;BME280;50318;54.760;9.408;2022-07-23T07:21:14;101282.25;;;20.67;55.69
64066;BME280;50318;54.760;9.408;2022-07-23T07:23:40;101286.81;;;20.70;55.71
64066;BME280;50318;54.760;9.408;2022-07-23T07:26:05;101282.47;;;20.80;55.13
64066;BME280;50318;54.760;9.408;2022-07-23T07:28:31;101282.00;;;20.82;54.87
64066;BME280;50318;54.760;9.408;2022-07-23T07:30:57;101269.56;;;20.77;54.28
64066;BME280;50318;54.760;9.408;2022-07-23T07:33:22;101279.19;;;20.76;54.87
64066;BME280;50318;54.760;9.408;2022-07-23T07:35:50;101275.91;;;20.72;54.66
64066;BME280;50318;54.760;9.408;2022-07-23T07:38:16;101277.69;;;20.75;55.24
64066;BME280;50318;54.760;9.408;2022-07-23T07:40:41;101270.84;;;20.71;55.27
64066;BME280;50318;54.760;9.408;2022-07-23T07:43:07;101284.25;;;20.78;54.76
64066;BME280;50318;54.760;9.408;2022-07-23T07:45:33;101291.09;;;20.77;54.69
64066;BME280;50318;54.760;9.408;2022-07-23T07:47:59;101294.16;;;20.79;55.35
64066;BME280;50318;54.760;9.408;2022-07-23T07:50:24;101296.41;;;20.80;54.80
64066;BME280;50318;54.760;9.408;2022-07-23T07:52:50;101289.84;;;20.83;54.77
64066;BME280;50318;54.760;9.408;2022-07-23T07:55:16;101300.00;;;20.87;54.93
64066;BME280;50318;54.760;9.408;2022-07-23T07:57:41;101295.19;;;20.87;54.03
64066;BME280;50318;54.760;9.408;2022-07-23T08:00:09;101296.44;;;20.92;54.26
64066;BME280;50318;54.760;9.408;2022-07-23T08:02:45;101296.19;;;20.95;54.55
64066;BME280;50318;54.760;9.408;2022-07-23T08:05:12;101293.13;;;20.99;54.14
64066;BME280;50318;54.760;9.408;2022-07-23T08:07:38;101284.50;;;21.02;53.89
64066;BME280;50318;54.760;9.408;2022-07-23T08:10:06;101281.47;;;21.00;53.49
64066;BME280;50318;54.760;9.408;2022-07-23T08:15:06;101287.78;;;21.01;53.66
64066;BME280;50318;54.760;9.408;2022-07-23T08:17:31;101295.91;;;20.99;53.38
64066;BME280;50318;54.760;9.408;2022-07-23T08:19:57;101288.81;;;20.92;53.25
64066;BME280;50318;54.760;9.408;2022-07-23T08:22:23;101302.75;;;20.98;53.64
64066;BME280;50318;54.760;9.408;2022-07-23T08:24:48;101293.38;;;21.01;53.10
64066;BME280;50318;54.760;9.408;2022-07-23T08:27:14;101300.50;;;21.07;53.92
64066;BME280;50318;54.760;9.408;2022-07-23T08:29:39;101297.19;;;21.14;53.92
64066;BME280;50318;54.760;9.408;2022-07-23T08:32:05;101296.13;;;21.23;53.44
64066;BME280;50318;54.760;9.408;2022-07-23T08:34:30;101282.72;;;21.27;53.03
64066;BME280;50318;54.760;9.408;2022-07-23T08:36:56;101292.31;;;21.43;53.63
64066;BME280;50318;54.760;9.408;2022-07-23T08:39:24;101289.00;;;21.56;52.98
64066;BME280;50318;54.760;9.408;2022-07-23T08:41:50;101294.53;;;21.67;52.62
64066;BME280;50318;54.760;9.408;2022-07-23T08:44:16;101304.91;;;21.78;52.32
64066;BME280;50318;54.760;9.408;2022-07-23T08:46:43;101298.31;;;21.75;51.85
64066;BME280;50318;54.760;9.408;2022-07-23T08:49:10;101293.25;;;21.68;51.72
64066;BME280;50318;54.760;9.408;2022-07-23T08:51:35;101311.81;;;21.60;50.95
64066;BME280;50318;54.760;9.408;2022-07-23T08:54:01;101312.09;;;21.51;52.53
64066;BME280;50318;54.760;9.408;2022-07-23T08:56:29;101315.16;;;21.41;51.74
64066;BME280;50318;54.760;9.408;2022-07-23T08:58:55;101321.53;;;21.31;52.34
64066;BME280;50318;54.760;9.408;2022-07-23T09:01:21;101325.31;;;21.22;53.34
64066;BME280;50318;54.760;9.408;2022-07-23T09:03:46;101335.97;;;21.18;53.99
64066;BME280;50318;54.760;9.408;2022-07-23T09:06:12;101324.06;;;21.18;53.56
64066;BME280;50318;54.760;9.408;2022-07-23T09:08:42;101337.00;;;21.15;51.67
64066;BME280;50318;54.760;9.408;2022-07-23T09:11:10;101335.72;;;21.16;52.28
64066;BME280;50318;54.760;9.408;2022-07-23T09:13:38;101332.41;;;21.18;52.03
64066;BME280;50318;54.760;9.408;2022-07-23T09:18:39;101338.75;;;21.18;51.78
64066;BME280;50318;54.760;9.408;2022-07-23T09:21:16;101342.81;;;21.17;52.84
64066;BME280;50318;54.760;9.408;2022-07-23T09:29:12;101349.66;;;21.22;51.70
64066;BME280;50318;54.760;9.408;2022-07-23T09:31:45;101352.72;;;21.18;51.27
64066;BME280;50318;54.760;9.408;2022-07-23T09:36:54;101351.69;;;21.21;52.15
64066;BME280;50318;54.760;9.408;2022-07-23T09:39:32;101359.31;;;21.26;51.83
64066;BME280;50318;54.760;9.408;2022-07-23T09:42:12;101358.06;;;21.33;52.82
64066;BME280;50318;54.760;9.408;2022-07-23T09:44:41;101357.53;;;21.45;51.95
64066;BME280;50318;54.760;9.408;2022-07-23T09:47:07;101351.16;;;21.51;51.78
64066;BME280;50318;54.760;9.408;2022-07-23T09:49:33;101353.69;;;21.60;50.25
64066;BME280;50318;54.760;9.408;2022-07-23T09:52:00;101354.19;;;21.64;50.94
64066;BME280;50318;54.760;9.408;2022-07-23T09:57:06;101356.66;;;21.84;50.23
64066;BME280;50318;54.760;9.408;2022-07-23T09:59:36;101355.63;;;21.87;50.04
64066;BME280;50318;54.760;9.408;2022-07-23T10:02:03;101357.88;;;21.94;50.17
64066;BME280;50318;54.760;9.408;2022-07-23T10:04:36;101355.84;;;21.95;49.97
64066;BME280;50318;54.760;9.408;2022-07-23T10:07:13;101356.34;;;21.99;49.87
64066;BME280;50318;54.760;9.408;2022-07-23T10:09:58;101350.75;;;21.99;50.30
64066;BME280;50318;54.760;9.408;2022-07-23T10:12:51;101357.63;;;22.09;49.83
64066;BME280;50318;54.760;9.408;2022-07-23T10:15:17;101356.81;;;22.14;49.75
64066;BME280;50318;54.760;9.408;2022-07-23T10:17:43;101354.00;;;22.20;49.27
64066;BME280;50318;54.760;9.408;2022-07-23T10:20:09;101361.09;;;22.21;49.18
64066;BME280;50318;54.760;9.408;2022-07-23T10:22:37;101359.88;;;22.16;49.17
64066;BME280;50318;54.760;9.408;2022-07-23T10:39:05;101377.97;;;21.87;49.57
64066;BME280;50318;54.760;9.408;2022-07-23T10:41:41;101379.28;;;21.81;49.31
64066;BME280;50318;54.760;9.408;2022-07-23T10:44:12;101366.09;;;21.70;49.93
64066;BME280;50318;54.760;9.408;2022-07-23T10:49:44;101388.41;;;21.87;50.40
64066;BME280;50318;54.760;9.408;2022-07-23T10:54:42;101388.09;;;22.01;49.93
64066;BME280;50318;54.760;9.408;2022-07-23T10:57:10;101381.97;;;22.14;50.69
64066;BME280;50318;54.760;9.408;2022-07-23T11:02:41;101392.69;;;22.57;50.19
64066;BME280;50318;54.760;9.408;2022-07-23T11:05:12;101387.25;;;22.76;48.69
64066;BME280;50318;54.760;9.408;2022-07-23T11:10:37;101382.56;;;22.95;46.22
64066;BME280;50318;54.760;9.408;2022-07-23T11:24:13;101391.09;;;22.67;47.43
64066;BME280;50318;54.760;9.408;2022-07-23T11:26:50;101397.44;;;22.67;46.80
64066;BME280;50318;54.760;9.408;2022-07-23T11:34:44;101396.56;;;22.48;46.74
64066;BME280;50318;54.760;9.408;2022-07-23T11:40:11;101397.44;;;22.26;48.12
64066;BME280;50318;54.760;9.408;2022-07-23T11:45:20;101392.16;;;22.12;48.14
64066;BME280;50318;54.760;9.408;2022-07-23T11:47:46;101395.97;;;22.09;48.17
64066;BME280;50318;54.760;9.408;2022-07-23T11:50:12;101402.31;;;22.03;48.27
64066;BME280;50318;54.760;9.408;2022-07-23T11:52:38;101392.16;;;22.00;48.89
64066;BME280;50318;54.760;9.408;2022-07-23T11:55:11;101404.63;;;22.05;48.32
64066;BME280;50318;54.760;9.408;2022-07-23T11:57:39;101403.09;;;22.04;48.30
64066;BME280;50318;54.760;9.408;2022-07-23T12:02:49;101403.03;;;22.15;49.21
64066;BME280;50318;54.760;9.408;2022-07-23T12:05:21;101396.91;;;22.22;49.21
64066;BME280;50318;54.760;9.408;2022-07-23T12:07:51;101404.19;;;22.42;48.97
64066;BME280;50318;54.760;9.408;2022-07-23T12:10:23;101408.16;;;22.63;48.46
64066;BME280;50318;54.760;9.408;2022-07-23T12:15:22;101409.28;;;22.90;46.13
64066;BME280;50318;54.760;9.408;2022-07-23T12:17:49;101418.34;;;23.02;46.24
64066;BME280;50318;54.760;9.408;2022-07-23T12:20:41;101406.53;;;23.15;45.88
64066;BME280;50318;54.760;9.408;2022-07-23T12:23:08;101403.59;;;23.32;45.30
64066;BME280;50318;54.760;9.408;2022-07-23T12:25:37;101402.03;;;23.36;44.93
64066;BME280;50318;54.760;9.408;2022-07-23T12:28:15;101421.09;;;23.43;44.45
64066;BME280;50318;54.760;9.408;2022-07-23T12:33:13;101416.97;;;23.14;45.67
64066;BME280;50318;54.760;9.408;2022-07-23T12:35:46;101419.31;;;23.10;46.54
64066;BME280;50318;54.760;9.408;2022-07-23T12:38:15;101424.19;;;23.04;46.02
64066;BME280;50318;54.760;9.408;2022-07-23T12:41:08;101423.94;;;23.02;46.92
64066;BME280;50318;54.760;9.408;2022-07-23T12:43:41;101428.97;;;23.09;46.51
64066;BME280;50318;54.760;9.408;2022-07-23T12:46:16;101423.63;;;23.11;46.21
64066;BME280;50318;54.760;9.408;2022-07-23T12:51:23;101415.38;;;23.24;45.93
64066;BME280;50318;54.760;9.408;2022-07-23T12:53:51;101430.25;;;23.38;46.20
64066;BME280;50318;54.760;9.408;2022-07-23T12:56:28;101436.38;;;23.42;45.71
64066;BME280;50318;54.760;9.408;2022-07-23T13:01:36;101426.91;;;23.45;45.25
64066;BME280;50318;54.760;9.408;2022-07-23T13:04:13;101435.84;;;23.44;45.08
64066;BME280;50318;54.760;9.408;2022-07-23T13:06:47;101440.69;;;23.38;45.34
64066;BME280;50318;54.760;9.408;2022-07-23T13:09:15;101435.69;;;23.31;46.32
64066;BME280;50318;54.760;9.408;2022-07-23T13:11:43;101443.38;;;23.24;45.98
64066;BME280;50318;54.760;9.408;2022-07-23T13:14:14;101433.59;;;23.07;46.11
64066;BME280;50318;54.760;9.408;2022-07-23T13:16:41;101440.28;;;22.92;46.97
64066;BME280;50318;54.760;9.408;2022-07-23T13:19:07;101427.91;;;22.77;47.23
64066;BME280;50318;54.760;9.408;2022-07-23T13:21:36;101446.19;;;22.83;46.83
64066;BME280;50318;54.760;9.408;2022-07-23T13:24:03;101432.72;;;22.82;45.88
64066;BME280;50318;54.760;9.408;2022-07-23T13:26:29;101438.06;;;22.80;47.18
64066;BME280;50318;54.760;9.408;2022-07-23T13:28:55;101441.13;;;22.82;46.82
64066;BME280;50318;54.760;9.408;2022-07-23T13:31:21;101436.47;;;22.90;46.06
64066;BME280;50318;54.760;9.408;2022-07-23T13:33:47;101437.69;;;23.00;46.21
64066;BME280;50318;54.760;9.408;2022-07-23T13:36:13;101439.47;;;23.03;46.50
64066;BME280;50318;54.760;9.408;2022-07-23T13:38:38;101448.53;;;23.15;46.22
64066;BME280;50318;54.760;9.408;2022-07-23T13:41:04;101447.69;;;23.25;46.73
64066;BME280;50318;54.760;9.408;2022-07-23T13:43:31;101453.94;;;23.37;46.24
64066;BME280;50318;54.760;9.408;2022-07-23T13:45:57;101457.50;;;23.38;46.37
64066;BME280;50318;54.760;9.408;2022-07-23T13:48:23;101451.91;;;23.38;46.06
64066;BME280;50318;54.760;9.408;2022-07-23T13:50:49;101448.09;;;23.35;44.97
64066;BME280;50318;54.760;9.408;2022-07-23T13:53:21;101447.88;;;23.33;44.69
64066;BME280;50318;54.760;9.408;2022-07-23T13:55:49;101453.75;;;23.30;45.70
64066;BME280;50318;54.760;9.408;2022-07-23T13:58:15;101461.44;;;23.23;45.05
64066;BME280;50318;54.760;9.408;2022-07-23T14:00:45;101451.56;;;23.17;45.29
64066;BME280;50318;54.760;9.408;2022-07-23T14:03:11;101447.75;;;23.20;46.08
64066;BME280;50318;54.760;9.408;2022-07-23T14:05:37;101462.44;;;23.26;45.55
64066;BME280;50318;54.760;9.408;2022-07-23T14:08:05;101466.47;;;23.31;45.78